sensor_id;sensor_type;location;lat;lon;timestamp;temperature;humidity
1181;DHT22;579;52.046;8.532;2023-02-22T00:01:11;12.50;1.00
1181;DHT22;579;52.046;8.532;2023-02-22T00:03:48;12.30;1.00
1181;DHT22;579;52.046;8.532;2023-02-22T00:09:21;12.50;1.00
1181;DHT22;579;52.046;8.532;2023-02-22T00:11:47;12.70;1.00
1181;DHT22;579;52.046;8.532;2023-02-22T00:14:14;12.60;1.00
1181;DHT22;579;52.046;8.532;2023-02-22T00:16:44;12.50;1.00
1181;DHT22;579;52.046;8.532;2023-02-22T00:19:11;12.60;1.00
1181;DHT22;579;52.046;8.532;2023-02-22T00:21:37;12.50;1.00
1181;DHT22;579;52.046;8.532;2023-02-22T00:24:03;12.50;1.00
1181;DHT22;579;52.046;8.532;2023-02-22T00:26:48;12.50;1.00
1181;DHT22;579;52.046;8.532;2023-02-22T00:29:15;12.50;1.00
1181;DHT22;579;52.046;8.532;2023-02-22T00:36:46;12.40;1.00
1181;DHT22;579;52.046;8.532;2023-02-22T00:39:12;12.50;1.00
1181;DHT22;579;52.046;8.532;2023-02-22T00:41:39;12.60;1.00
1181;DHT22;579;52.046;8.532;2023-02-22T00:44:05;12.50;1.00
1181;DHT22;579;52.046;8.532;2023-02-22T00:46:31;12.70;1.00
1181;DHT22;579;52.046;8.532;2023-02-22T00:48:57;12.50;1.00
1181;DHT22;579;52.046;8.532;2023-02-22T00:51:24;12.40;1.00
1181;DHT22;579;52.046;8.532;2023-02-22T00:53:51;12.60;1.00
1181;DHT22;579;52.046;8.532;2023-02-22T01:00:56;12.50;1.00
1181;DHT22;579;52.046;8.532;2023-02-22T01:03:23;12.40;1.00
1181;DHT22;579;52.046;8.532;2023-02-22T01:05:49;12.30;1.00
1181;DHT22;579;52.046;8.532;2023-02-22T01:08:16;12.40;1.00
1181;DHT22;579;52.046;8.532;2023-02-22T01:10:42;12.30;1.00
1181;DHT22;579;52.046;8.532;2023-02-22T01:13:10;12.50;1.00
1181;DHT22;579;52.046;8.532;2023-02-22T01:15:38;12.60;1.00
1181;DHT22;579;52.046;8.532;2023-02-22T01:18:06;12.40;1.00
1181;DHT22;579;52.046;8.532;2023-02-22T01:25:39;12.40;1.00
1181;DHT22;579;52.046;8.532;2023-02-22T01:28:06;12.10;1.00
1181;DHT22;579;52.046;8.532;2023-02-22T01:30:34;12.00;1.00
1181;DHT22;579;52.046;8.532;2023-02-22T01:33:03;12.00;1.00
1181;DHT22;579;52.046;8.532;2023-02-22T01:35:34;11.90;1.00
1181;DHT22;579;52.046;8.532;2023-02-22T01:38:01;11.90;1.00
1181;DHT22;579;52.046;8.532;2023-02-22T01:40:29;11.80;1.00
1181;DHT22;579;52.046;8.532;2023-02-22T01:45:57;11.60;1.00
1181;DHT22;579;52.046;8.532;2023-02-22T01:48:29;11.50;1.00
1181;DHT22;579;52.046;8.532;2023-02-22T01:51:01;11.10;1.00
1181;DHT22;579;52.046;8.532;2023-02-22T01:53:39;11.20;1.00
1181;DHT22;579;52.046;8.532;2023-02-22T01:56:08;11.00;1.00
1181;DHT22;579;52.046;8.532;2023-02-22T01:58:35;11.00;1.00
1181;DHT22;579;52.046;8.532;2023-02-22T02:01:04;10.90;1.00
1181;DHT22;579;52.046;8.532;2023-02-22T02:06:13;10.90;1.00
1181;DHT22;579;52.046;8.532;2023-02-22T02:08:48;10.70;1.00
1181;DHT22;579;52.046;8.532;2023-02-22T02:11:27;10.70;1.00
1181;DHT22;579;52.046;8.532;2023-02-22T02:13:55;10.70;1.00
1181;DHT22;579;52.046;8.532;2023-02-22T02:16:24;10.70;1.00
1181;DHT22;579;52.046;8.532;2023-02-22T02:18:52;10.70;1.00
1181;DHT22;579;52.046;8.532;2023-02-22T02:21:41;10.40;1.00
1181;DHT22;579;52.046;8.532;2023-02-22T02:28:28;10.30;1.00
1181;DHT22;579;52.046;8.532;2023-02-22T02:31:28;10.30;1.00
1181;DHT22;579;52.046;8.532;2023-02-22T02:34:20;10.20;1.00
1181;DHT22;579;52.046;8.532;2023-02-22T02:36:57;10.20;1.00
1181;DHT22;579;52.046;8.532;2023-02-22T02:39:28;10.10;1.00
1181;DHT22;579;52.046;8.532;2023-02-22T02:41:59;10.10;1.00
1181;DHT22;579;52.046;8.532;2023-02-22T02:52:09;10.00;1.00
1181;DHT22;579;52.046;8.532;2023-02-22T02:54:38;9.70;1.00
1181;DHT22;579;52.046;8.532;2023-02-22T02:57:05;9.50;1.00
1181;DHT22;579;52.046;8.532;2023-02-22T02:59:35;9.40;1.00
1181;DHT22;579;52.046;8.532;2023-02-22T03:02:24;9.50;1.00
1181;DHT22;579;52.046;8.532;2023-02-22T03:05:15;9.50;1.00
1181;DHT22;579;52.046;8.532;2023-02-22T03:07:54;9.40;1.00
1181;DHT22;579;52.046;8.532;2023-02-22T03:15:36;9.70;1.00
1181;DHT22;579;52.046;8.532;2023-02-22T03:18:15;9.30;1.00
1181;DHT22;579;52.046;8.532;2023-02-22T03:20:51;9.20;1.00
1181;DHT22;579;52.046;8.532;2023-02-22T03:23:23;8.90;1.00
1181;DHT22;579;52.046;8.532;2023-02-22T03:25:57;9.30;1.00
1181;DHT22;579;52.046;8.532;2023-02-22T03:28:26;9.10;1.00
1181;DHT22;579;52.046;8.532;2023-02-22T03:30:57;9.20;1.00
1181;DHT22;579;52.046;8.532;2023-02-22T03:38:17;9.00;1.00
1181;DHT22;579;52.046;8.532;2023-02-22T03:40:48;8.70;1.00
1181;DHT22;579;52.046;8.532;2023-02-22T03:43:20;8.80;1.00
1181;DHT22;579;52.046;8.532;2023-02-22T03:45:49;8.70;1.00
1181;DHT22;579;52.046;8.532;2023-02-22T03:48:20;8.80;1.00
1181;DHT22;579;52.046;8.532;2023-02-22T03:50:51;8.60;1.00
1181;DHT22;579;52.046;8.532;2023-02-22T03:53:18;8.50;1.00
1181;DHT22;579;52.046;8.532;2023-02-22T04:00:51;8.40;1.00
1181;DHT22;579;52.046;8.532;2023-02-22T04:03:18;8.30;1.00
1181;DHT22;579;52.046;8.532;2023-02-22T04:05:44;8.30;1.00
1181;DHT22;579;52.046;8.532;2023-02-22T04:08:11;8.30;1.00
1181;DHT22;579;52.046;8.532;2023-02-22T04:10:37;8.10;1.00
1181;DHT22;579;52.046;8.532;2023-02-22T04:13:03;8.20;1.00
1181;DHT22;579;52.046;8.532;2023-02-22T04:15:31;8.20;1.00
1181;DHT22;579;52.046;8.532;2023-02-22T04:17:59;8.20;1.00
1181;DHT22;579;52.046;8.532;2023-02-22T04:25:30;8.20;1.00
1181;DHT22;579;52.046;8.532;2023-02-22T04:27:56;8.30;1.00
1181;DHT22;579;52.046;8.532;2023-02-22T04:30:22;7.90;1.00
1181;DHT22;579;52.046;8.532;2023-02-22T04:32:48;7.80;1.00
1181;DHT22;579;52.046;8.532;2023-02-22T04:35:15;7.80;1.00
1181;DHT22;579;52.046;8.532;2023-02-22T04:37:41;7.80;1.00
1181;DHT22;579;52.046;8.532;2023-02-22T04:40:08;7.70;1.00
1181;DHT22;579;52.046;8.532;2023-02-22T04:42:37;7.70;1.00
1181;DHT22;579;52.046;8.532;2023-02-22T04:50:11;7.50;1.00
1181;DHT22;579;52.046;8.532;2023-02-22T04:52:37;7.30;1.00
1181;DHT22;579;52.046;8.532;2023-02-22T04:55:04;7.10;1.00
1181;DHT22;579;52.046;8.532;2023-02-22T04:57:31;7.10;1.00
1181;DHT22;579;52.046;8.532;2023-02-22T04:59:58;7.10;1.00
1181;DHT22;579;52.046;8.532;2023-02-22T05:02:24;7.00;1.00
1181;DHT22;579;52.046;8.532;2023-02-22T05:04:51;7.10;1.00
1181;DHT22;579;52.046;8.532;2023-02-22T05:10:08;7.00;1.00
1181;DHT22;579;52.046;8.532;2023-02-22T05:12:35;6.80;1.00
1181;DHT22;579;52.046;8.532;2023-02-22T05:15:01;6.70;1.00
1181;DHT22;579;52.046;8.532;2023-02-22T05:17:27;6.90;1.00
1181;DHT22;579;52.046;8.532;2023-02-22T05:19:54;7.00;1.00
1181;DHT22;579;52.046;8.532;2023-02-22T05:22:20;6.80;1.00
1181;DHT22;579;52.046;8.532;2023-02-22T05:24:46;6.70;1.00
1181;DHT22;579;52.046;8.532;2023-02-22T05:29:52;6.50;1.00
1181;DHT22;579;52.046;8.532;2023-02-22T05:32:18;6.60;1.00
1181;DHT22;579;52.046;8.532;2023-02-22T05:34:45;6.60;1.00
1181;DHT22;579;52.046;8.532;2023-02-22T05:37:11;6.60;1.00
1181;DHT22;579;52.046;8.532;2023-02-22T05:39:37;6.60;1.00
1181;DHT22;579;52.046;8.532;2023-02-22T05:42:03;6.60;1.00
1181;DHT22;579;52.046;8.532;2023-02-22T05:44:30;6.60;1.00
1181;DHT22;579;52.046;8.532;2023-02-22T05:46:56;6.70;1.00
1181;DHT22;579;52.046;8.532;2023-02-22T05:54:28;6.70;1.00
1181;DHT22;579;52.046;8.532;2023-02-22T05:56:54;6.40;1.00
1181;DHT22;579;52.046;8.532;2023-02-22T05:59:20;6.40;1.00
1181;DHT22;579;52.046;8.532;2023-02-22T06:01:46;6.50;1.00
1181;DHT22;579;52.046;8.532;2023-02-22T06:04:13;6.60;1.00
1181;DHT22;579;52.046;8.532;2023-02-22T06:06:39;6.40;1.00
1181;DHT22;579;52.046;8.532;2023-02-22T06:09:05;6.40;1.00
1181;DHT22;579;52.046;8.532;2023-02-22T06:11:32;6.40;1.00
1181;DHT22;579;52.046;8.532;2023-02-22T06:19:04;6.40;1.00
1181;DHT22;579;52.046;8.532;2023-02-22T06:21:30;6.30;1.00
1181;DHT22;579;52.046;8.532;2023-02-22T06:23:56;6.50;1.00
1181;DHT22;579;52.046;8.532;2023-02-22T06:26:22;6.40;1.00
1181;DHT22;579;52.046;8.532;2023-02-22T06:28:48;6.30;1.00
1181;DHT22;579;52.046;8.532;2023-02-22T06:31:14;6.40;1.00
1181;DHT22;579;52.046;8.532;2023-02-22T06:33:41;6.30;1.00
1181;DHT22;579;52.046;8.532;2023-02-22T06:36:08;6.30;1.00
1181;DHT22;579;52.046;8.532;2023-02-22T06:43:38;6.30;1.00
1181;DHT22;579;52.046;8.532;2023-02-22T06:46:04;6.30;1.00
1181;DHT22;579;52.046;8.532;2023-02-22T06:48:36;6.30;1.00
1181;DHT22;579;52.046;8.532;2023-02-22T06:51:04;6.40;1.00
1181;DHT22;579;52.046;8.532;2023-02-22T06:53:32;6.30;1.00
1181;DHT22;579;52.046;8.532;2023-02-22T06:55:59;6.20;1.00
1181;DHT22;579;52.046;8.532;2023-02-22T06:58:26;6.20;1.00
1181;DHT22;579;52.046;8.532;2023-02-22T07:00:53;6.40;1.00
1181;DHT22;579;52.046;8.532;2023-02-22T07:08:20;6.60;1.00
1181;DHT22;579;52.046;8.532;2023-02-22T07:10:46;6.70;1.00
1181;DHT22;579;52.046;8.532;2023-02-22T07:13:14;6.70;1.00
1181;DHT22;579;52.046;8.532;2023-02-22T07:15:41;6.80;1.00
1181;DHT22;579;52.046;8.532;2023-02-22T07:18:07;6.90;1.00
1181;DHT22;579;52.046;8.532;2023-02-22T07:20:33;6.90;1.00
1181;DHT22;579;52.046;8.532;2023-02-22T07:23:00;7.00;1.00
1181;DHT22;579;52.046;8.532;2023-02-22T07:25:26;7.10;1.00
1181;DHT22;579;52.046;8.532;2023-02-22T07:32:59;7.10;1.00
1181;DHT22;579;52.046;8.532;2023-02-22T07:35:29;7.20;1.00
1181;DHT22;579;52.046;8.532;2023-02-22T07:37:56;7.30;1.00
1181;DHT22;579;52.046;8.532;2023-02-22T07:40:23;7.50;1.00
1181;DHT22;579;52.046;8.532;2023-02-22T07:42:54;7.50;1.00
1181;DHT22;579;52.046;8.532;2023-02-22T07:45:22;7.50;1.00
1181;DHT22;579;52.046;8.532;2023-02-22T07:47:49;7.60;1.00
1181;DHT22;579;52.046;8.532;2023-02-22T07:50:18;7.60;1.00
1181;DHT22;579;52.046;8.532;2023-02-22T07:57:54;7.80;1.00
1181;DHT22;579;52.046;8.532;2023-02-22T08:00:24;8.20;1.00
1181;DHT22;579;52.046;8.532;2023-02-22T08:02:51;8.50;1.00
1181;DHT22;579;52.046;8.532;2023-02-22T08:05:18;8.50;1.00
1181;DHT22;579;52.046;8.532;2023-02-22T08:07:45;8.40;1.00
1181;DHT22;579;52.046;8.532;2023-02-22T08:10:14;8.70;1.00
1181;DHT22;579;52.046;8.532;2023-02-22T08:12:42;8.80;1.00
1181;DHT22;579;52.046;8.532;2023-02-22T08:17:48;9.00;1.00
1181;DHT22;579;52.046;8.532;2023-02-22T08:20:15;9.40;1.00
1181;DHT22;579;52.046;8.532;2023-02-22T08:22:42;9.50;1.00
1181;DHT22;579;52.046;8.532;2023-02-22T08:25:08;9.60;1.00
1181;DHT22;579;52.046;8.532;2023-02-22T08:27:34;9.80;1.00
1181;DHT22;579;52.046;8.532;2023-02-22T08:30:01;10.00;1.00
1181;DHT22;579;52.046;8.532;2023-02-22T08:32:27;10.20;1.00
1181;DHT22;579;52.046;8.532;2023-02-22T08:34:54;10.50;1.00
1181;DHT22;579;52.046;8.532;2023-02-22T08:42:21;10.90;1.00
1181;DHT22;579;52.046;8.532;2023-02-22T08:44:47;11.60;1.00
1181;DHT22;579;52.046;8.532;2023-02-22T08:47:13;12.00;1.00
1181;DHT22;579;52.046;8.532;2023-02-22T08:49:39;12.30;1.00
1181;DHT22;579;52.046;8.532;2023-02-22T08:52:06;12.60;1.00
1181;DHT22;579;52.046;8.532;2023-02-22T08:54:33;12.90;1.00
1181;DHT22;579;52.046;8.532;2023-02-22T08:56:59;13.20;1.00
1181;DHT22;579;52.046;8.532;2023-02-22T08:59:26;13.10;1.00
1181;DHT22;579;52.046;8.532;2023-02-22T09:06:21;13.30;1.00
1181;DHT22;579;52.046;8.532;2023-02-22T09:08:48;13.40;1.00
1181;DHT22;579;52.046;8.532;2023-02-22T09:11:14;13.50;1.00
1181;DHT22;579;52.046;8.532;2023-02-22T09:13:40;13.50;1.00
1181;DHT22;579;52.046;8.532;2023-02-22T09:16:06;13.80;1.00
1181;DHT22;579;52.046;8.532;2023-02-22T09:18:33;14.00;1.00
1181;DHT22;579;52.046;8.532;2023-02-22T09:20:59;14.10;1.00
1181;DHT22;579;52.046;8.532;2023-02-22T09:23:25;14.70;1.00
1181;DHT22;579;52.046;8.532;2023-02-22T09:30:57;15.20;1.00
1181;DHT22;579;52.046;8.532;2023-02-22T09:33:23;15.30;1.00
1181;DHT22;579;52.046;8.532;2023-02-22T09:35:50;15.50;1.00
1181;DHT22;579;52.046;8.532;2023-02-22T09:38:18;15.70;1.00
1181;DHT22;579;52.046;8.532;2023-02-22T09:40:50;15.70;1.00
1181;DHT22;579;52.046;8.532;2023-02-22T09:43:26;15.80;1.00
1181;DHT22;579;52.046;8.532;2023-02-22T09:46:08;15.80;1.00
1181;DHT22;579;52.046;8.532;2023-02-22T09:48:57;15.40;1.00
1181;DHT22;579;52.046;8.532;2023-02-22T09:54:23;15.50;1.00
1181;DHT22;579;52.046;8.532;2023-02-22T09:56:55;15.50;1.00
1181;DHT22;579;52.046;8.532;2023-02-22T09:59:26;15.80;1.00
1181;DHT22;579;52.046;8.532;2023-02-22T10:01:58;16.00;1.00
1181;DHT22;579;52.046;8.532;2023-02-22T10:04:35;15.90;1.00
1181;DHT22;579;52.046;8.532;2023-02-22T10:07:14;15.60;1.00
1181;DHT22;579;52.046;8.532;2023-02-22T10:09:45;16.00;1.00
1181;DHT22;579;52.046;8.532;2023-02-22T10:17:25;16.10;1.00
1181;DHT22;579;52.046;8.532;2023-02-22T10:20:14;16.20;1.00
1181;DHT22;579;52.046;8.532;2023-02-22T10:22:54;16.60;1.00
1181;DHT22;579;52.046;8.532;2023-02-22T10:25:30;16.80;1.00
1181;DHT22;579;52.046;8.532;2023-02-22T10:28:02;16.60;1.00
1181;DHT22;579;52.046;8.532;2023-02-22T10:30:37;16.70;1.00
1181;DHT22;579;52.046;8.532;2023-02-22T10:33:11;16.90;1.00
1181;DHT22;579;52.046;8.532;2023-02-22T10:43:02;16.60;1.00
1181;DHT22;579;52.046;8.532;2023-02-22T10:45:30;16.60;1.00
1181;DHT22;579;52.046;8.532;2023-02-22T10:47:59;16.60;1.00
1181;DHT22;579;52.046;8.532;2023-02-22T10:50:35;16.80;1.00
1181;DHT22;579;52.046;8.532;2023-02-22T10:53:04;16.80;1.00
1181;DHT22;579;52.046;8.532;2023-02-22T10:55:30;16.80;1.00
1181;DHT22;579;52.046;8.532;2023-02-22T10:58:00;17.00;1.00
1181;DHT22;579;52.046;8.532;2023-02-22T11:00:31;17.20;1.00
1181;DHT22;579;52.046;8.532;2023-02-22T11:03:23;17.00;1.00
1181;DHT22;579;52.046;8.532;2023-02-22T11:05:49;16.80;1.00
1181;DHT22;579;52.046;8.532;2023-02-22T11:08:26;17.00;1.00
1181;DHT22;579;52.046;8.532;2023-02-22T11:10:55;17.10;1.00
1181;DHT22;579;52.046;8.532;2023-02-22T11:13:27;16.90;1.00
1181;DHT22;579;52.046;8.532;2023-02-22T11:15:56;16.90;1.00
1181;DHT22;579;52.046;8.532;2023-02-22T11:18:28;16.90;1.00
1181;DHT22;579;52.046;8.532;2023-02-22T11:23:43;17.10;1.00
1181;DHT22;579;52.046;8.532;2023-02-22T11:26:11;17.40;1.00
1181;DHT22;579;52.046;8.532;2023-02-22T11:28:42;17.60;1.00
1181;DHT22;579;52.046;8.532;2023-02-22T11:31:15;17.90;1.00
1181;DHT22;579;52.046;8.532;2023-02-22T11:33:51;17.60;1.00
1181;DHT22;579;52.046;8.532;2023-02-22T11:36:32;17.30;1.00
1181;DHT22;579;52.046;8.532;2023-02-22T11:39:03;17.40;1.00
1181;DHT22;579;52.046;8.532;2023-02-22T11:41:32;17.50;1.00
1181;DHT22;579;52.046;8.532;2023-02-22T11:44:30;17.10;1.00
1181;DHT22;579;52.046;8.532;2023-02-22T11:47:00;17.20;1.00
1181;DHT22;579;52.046;8.532;2023-02-22T11:49:32;17.60;1.00
1181;DHT22;579;52.046;8.532;2023-02-22T11:52:11;17.90;1.00
1181;DHT22;579;52.046;8.532;2023-02-22T11:54:55;17.80;1.00
1181;DHT22;579;52.046;8.532;2023-02-22T11:57:44;17.40;1.00
1181;DHT22;579;52.046;8.532;2023-02-22T12:03:43;17.10;1.00
1181;DHT22;579;52.046;8.532;2023-02-22T12:06:28;17.40;1.00
1181;DHT22;579;52.046;8.532;2023-02-22T12:09:05;17.60;1.00
1181;DHT22;579;52.046;8.532;2023-02-22T12:11:41;17.70;1.00
1181;DHT22;579;52.046;8.532;2023-02-22T12:14:23;18.10;1.00
1181;DHT22;579;52.046;8.532;2023-02-22T12:17:10;18.40;1.00
1181;DHT22;579;52.046;8.532;2023-02-22T12:19:47;18.40;1.00
1181;DHT22;579;52.046;8.532;2023-02-22T12:27:24;18.30;1.00
1181;DHT22;579;52.046;8.532;2023-02-22T12:29:55;18.50;1.00
1181;DHT22;579;52.046;8.532;2023-02-22T12:32:28;18.70;1.00
1181;DHT22;579;52.046;8.532;2023-02-22T12:35:01;19.10;1.00
1181;DHT22;579;52.046;8.532;2023-02-22T12:37:33;19.20;1.00
1181;DHT22;579;52.046;8.532;2023-02-22T12:40:06;19.30;1.00
1181;DHT22;579;52.046;8.532;2023-02-22T12:42:46;19.20;1.00
1181;DHT22;579;52.046;8.532;2023-02-22T12:50:22;19.20;1.00
1181;DHT22;579;52.046;8.532;2023-02-22T12:52:55;18.70;1.00
1181;DHT22;579;52.046;8.532;2023-02-22T12:55:24;18.40;1.00
1181;DHT22;579;52.046;8.532;2023-02-22T12:57:57;18.50;1.00
1181;DHT22;579;52.046;8.532;2023-02-22T13:00:40;18.80;1.00
1181;DHT22;579;52.046;8.532;2023-02-22T13:03:25;18.80;1.00
1181;DHT22;579;52.046;8.532;2023-02-22T13:06:02;19.00;1.00
1181;DHT22;579;52.046;8.532;2023-02-22T13:13:58;19.40;1.00
1181;DHT22;579;52.046;8.532;2023-02-22T13:16:41;19.70;1.00
1181;DHT22;579;52.046;8.532;2023-02-22T13:19:22;19.90;1.00
1181;DHT22;579;52.046;8.532;2023-02-22T13:22:06;19.80;1.00
1181;DHT22;579;52.046;8.532;2023-02-22T13:24:42;20.00;1.00
1181;DHT22;579;52.046;8.532;2023-02-22T13:27:21;19.90;1.00
1181;DHT22;579;52.046;8.532;2023-02-22T13:29:54;20.00;1.00
1181;DHT22;579;52.046;8.532;2023-02-22T13:37:48;20.00;1.00
1181;DHT22;579;52.046;8.532;2023-02-22T13:40:42;20.00;1.00
1181;DHT22;579;52.046;8.532;2023-02-22T13:43:28;20.00;1.00
1181;DHT22;579;52.046;8.532;2023-02-22T13:46:21;19.90;1.00
1181;DHT22;579;52.046;8.532;2023-02-22T13:49:31;20.40;1.00
1181;DHT22;579;52.046;8.532;2023-02-22T13:52:06;20.90;1.00
1181;DHT22;579;52.046;8.532;2023-02-22T13:54:39;20.70;1.00
1181;DHT22;579;52.046;8.532;2023-02-22T14:02:54;20.50;1.00
1181;DHT22;579;52.046;8.532;2023-02-22T14:05:49;20.70;1.00
1181;DHT22;579;52.046;8.532;2023-02-22T14:08:38;20.90;1.00
1181;DHT22;579;52.046;8.532;2023-02-22T14:14:19;21.00;1.00
1181;DHT22;579;52.046;8.532;2023-02-22T14:20:16;20.90;1.00
1181;DHT22;579;52.046;8.532;2023-02-22T14:22:46;20.70;1.00
1181;DHT22;579;52.046;8.532;2023-02-22T14:25:36;20.80;1.00
1181;DHT22;579;52.046;8.532;2023-02-22T14:28:05;20.40;1.00
1181;DHT22;579;52.046;8.532;2023-02-22T14:30:37;20.50;1.00
1181;DHT22;579;52.046;8.532;2023-02-22T14:40:18;20.40;1.00
1181;DHT22;579;52.046;8.532;2023-02-22T14:42:57;20.50;1.00
1181;DHT22;579;52.046;8.532;2023-02-22T14:45:29;20.30;1.00
1181;DHT22;579;52.046;8.532;2023-02-22T14:48:00;20.40;1.00
1181;DHT22;579;52.046;8.532;2023-02-22T14:50:41;20.40;1.00
1181;DHT22;579;52.046;8.532;2023-02-22T14:53:21;20.10;1.00
1181;DHT22;579;52.046;8.532;2023-02-22T15:00:23;19.90;1.00
1181;DHT22;579;52.046;8.532;2023-02-22T15:02:57;19.70;1.00
1181;DHT22;579;52.046;8.532;2023-02-22T15:05:29;19.70;1.00
1181;DHT22;579;52.046;8.532;2023-02-22T15:08:04;19.80;1.00
1181;DHT22;579;52.046;8.532;2023-02-22T15:10:39;19.90;1.00
1181;DHT22;579;52.046;8.532;2023-02-22T15:13:15;20.10;1.00
1181;DHT22;579;52.046;8.532;2023-02-22T15:15:45;19.90;1.00
1181;DHT22;579;52.046;8.532;2023-02-22T15:23:28;19.50;1.00
1181;DHT22;579;52.046;8.532;2023-02-22T15:26:03;19.10;1.00
1181;DHT22;579;52.046;8.532;2023-02-22T15:28:30;19.10;1.00
1181;DHT22;579;52.046;8.532;2023-02-22T15:31:16;19.00;1.00
1181;DHT22;579;52.046;8.532;2023-02-22T15:33:47;19.00;1.00
1181;DHT22;579;52.046;8.532;2023-02-22T15:36:19;19.00;1.00
1181;DHT22;579;52.046;8.532;2023-02-22T15:38:49;19.20;1.00
1181;DHT22;579;52.046;8.532;2023-02-22T15:44:04;18.60;1.00
1181;DHT22;579;52.046;8.532;2023-02-22T15:46:32;18.60;1.00
1181;DHT22;579;52.046;8.532;2023-02-22T15:49:22;18.60;1.00
1181;DHT22;579;52.046;8.532;2023-02-22T15:52:01;18.70;1.00
1181;DHT22;579;52.046;8.532;2023-02-22T15:54:29;18.60;1.00
1181;DHT22;579;52.046;8.532;2023-02-22T15:57:05;18.30;1.00
1181;DHT22;579;52.046;8.532;2023-02-22T15:59:32;18.30;1.00
1181;DHT22;579;52.046;8.532;2023-02-22T16:09:23;17.90;1.00
1181;DHT22;579;52.046;8.532;2023-02-22T16:12:05;18.20;1.00
1181;DHT22;579;52.046;8.532;2023-02-22T16:14:40;18.20;1.00
1181;DHT22;579;52.046;8.532;2023-02-22T16:17:11;18.00;1.00
1181;DHT22;579;52.046;8.532;2023-02-22T16:19:54;17.90;1.00
1181;DHT22;579;52.046;8.532;2023-02-22T16:22:28;17.70;1.00
1181;DHT22;579;52.046;8.532;2023-02-22T16:25:14;17.60;1.00
1181;DHT22;579;52.046;8.532;2023-02-22T16:32:56;17.20;1.00
1181;DHT22;579;52.046;8.532;2023-02-22T16:35:24;16.90;1.00
1181;DHT22;579;52.046;8.532;2023-02-22T16:37:58;16.80;1.00
1181;DHT22;579;52.046;8.532;2023-02-22T16:40:27;16.70;1.00
1181;DHT22;579;52.046;8.532;2023-02-22T16:42:58;16.70;1.00
1181;DHT22;579;52.046;8.532;2023-02-22T16:45:26;16.50;1.00
1181;DHT22;579;52.046;8.532;2023-02-22T16:47:52;16.20;1.00
1181;DHT22;579;52.046;8.532;2023-02-22T16:50:20;16.20;1.00
1181;DHT22;579;52.046;8.532;2023-02-22T16:53:01;16.20;1.00
1181;DHT22;579;52.046;8.532;2023-02-22T16:55:27;16.00;1.00
1181;DHT22;579;52.046;8.532;2023-02-22T16:57:55;15.90;1.00
1181;DHT22;579;52.046;8.532;2023-02-22T17:00:25;15.80;1.00
1181;DHT22;579;52.046;8.532;2023-02-22T17:02:56;15.80;1.00
1181;DHT22;579;52.046;8.532;2023-02-22T17:05:22;15.60;1.00
1181;DHT22;579;52.046;8.532;2023-02-22T17:07:49;15.50;1.00
1181;DHT22;579;52.046;8.532;2023-02-22T17:10:16;15.50;1.00
1181;DHT22;579;52.046;8.532;2023-02-22T17:17:50;15.30;1.00
1181;DHT22;579;52.046;8.532;2023-02-22T17:20:17;15.10;1.00
1181;DHT22;579;52.046;8.532;2023-02-22T17:22:55;15.00;1.00
1181;DHT22;579;52.046;8.532;2023-02-22T17:25:25;14.90;1.00
1181;DHT22;579;52.046;8.532;2023-02-22T17:27:53;14.80;1.00
1181;DHT22;579;52.046;8.532;2023-02-22T17:30:19;14.70;1.00
1181;DHT22;579;52.046;8.532;2023-02-22T17:32:47;14.70;1.00
1181;DHT22;579;52.046;8.532;2023-02-22T17:35:16;14.50;1.00
1181;DHT22;579;52.046;8.532;2023-02-22T17:42:50;14.40;1.00
1181;DHT22;579;52.046;8.532;2023-02-22T17:45:21;14.20;1.00
1181;DHT22;579;52.046;8.532;2023-02-22T17:47:48;14.10;1.00
1181;DHT22;579;52.046;8.532;2023-02-22T17:50:16;14.10;1.00
1181;DHT22;579;52.046;8.532;2023-02-22T17:52:44;14.00;1.00
1181;DHT22;579;52.046;8.532;2023-02-22T17:55:11;14.00;1.00
1181;DHT22;579;52.046;8.532;2023-02-22T17:57:39;13.90;1.00
1181;DHT22;579;52.046;8.532;2023-02-22T18:02:49;13.90;1.00
1181;DHT22;579;52.046;8.532;2023-02-22T18:05:17;13.80;1.00
1181;DHT22;579;52.046;8.532;2023-02-22T18:07:43;13.80;1.00
1181;DHT22;579;52.046;8.532;2023-02-22T18:10:10;13.80;1.00
1181;DHT22;579;52.046;8.532;2023-02-22T18:12:37;13.80;1.00
1181;DHT22;579;52.046;8.532;2023-02-22T18:15:04;13.80;1.00
1181;DHT22;579;52.046;8.532;2023-02-22T18:17:30;13.80;1.00
1181;DHT22;579;52.046;8.532;2023-02-22T18:25:01;13.70;1.00
1181;DHT22;579;52.046;8.532;2023-02-22T18:27:28;13.70;1.00
1181;DHT22;579;52.046;8.532;2023-02-22T18:29:54;13.60;1.00
1181;DHT22;579;52.046;8.532;2023-02-22T18:32:21;13.60;1.00
1181;DHT22;579;52.046;8.532;2023-02-22T18:34:47;13.50;1.00
1181;DHT22;579;52.046;8.532;2023-02-22T18:37:14;13.50;1.00
1181;DHT22;579;52.046;8.532;2023-02-22T18:39:44;13.50;1.00
1181;DHT22;579;52.046;8.532;2023-02-22T18:42:11;13.50;1.00
1181;DHT22;579;52.046;8.532;2023-02-22T18:46:07;13.50;1.00
1181;DHT22;579;52.046;8.532;2023-02-22T18:48:34;13.30;1.00
1181;DHT22;579;52.046;8.532;2023-02-22T18:51:01;13.40;1.00
1181;DHT22;579;52.046;8.532;2023-02-22T18:53:30;13.30;1.00
1181;DHT22;579;52.046;8.532;2023-02-22T18:56:01;13.20;1.00
1181;DHT22;579;52.046;8.532;2023-02-22T18:58:28;13.10;1.00
1181;DHT22;579;52.046;8.532;2023-02-22T19:00:57;13.20;1.00
1181;DHT22;579;52.046;8.532;2023-02-22T19:07:28;13.10;1.00
1181;DHT22;579;52.046;8.532;2023-02-22T19:09:57;13.30;1.00
1181;DHT22;579;52.046;8.532;2023-02-22T19:12:24;13.10;1.00
1181;DHT22;579;52.046;8.532;2023-02-22T19:14:51;12.90;1.00
1181;DHT22;579;52.046;8.532;2023-02-22T19:17:18;12.90;1.00
1181;DHT22;579;52.046;8.532;2023-02-22T19:19:46;13.00;1.00
1181;DHT22;579;52.046;8.532;2023-02-22T19:22:13;13.00;1.00
1181;DHT22;579;52.046;8.532;2023-02-22T19:28:54;13.00;1.00
1181;DHT22;579;52.046;8.532;2023-02-22T19:31:22;12.90;1.00
1181;DHT22;579;52.046;8.532;2023-02-22T19:33:51;12.90;1.00
1181;DHT22;579;52.046;8.532;2023-02-22T19:36:18;12.80;1.00
1181;DHT22;579;52.046;8.532;2023-02-22T19:38:47;12.70;1.00
1181;DHT22;579;52.046;8.532;2023-02-22T19:41:15;12.70;1.00
1181;DHT22;579;52.046;8.532;2023-02-22T19:43:42;12.60;1.00
1181;DHT22;579;52.046;8.532;2023-02-22T19:48:50;12.60;1.00
1181;DHT22;579;52.046;8.532;2023-02-22T19:51:19;12.50;1.00
1181;DHT22;579;52.046;8.532;2023-02-22T19:53:48;12.40;1.00
1181;DHT22;579;52.046;8.532;2023-02-22T19:56:17;12.50;1.00
1181;DHT22;579;52.046;8.532;2023-02-22T19:58:45;12.30;1.00
1181;DHT22;579;52.046;8.532;2023-02-22T20:01:13;12.20;1.00
1181;DHT22;579;52.046;8.532;2023-02-22T20:03:42;12.50;1.00
1181;DHT22;579;52.046;8.532;2023-02-22T20:08:52;12.40;1.00
1181;DHT22;579;52.046;8.532;2023-02-22T20:11:19;12.50;1.00
1181;DHT22;579;52.046;8.532;2023-02-22T20:13:45;12.00;1.00
1181;DHT22;579;52.046;8.532;2023-02-22T20:16:12;11.60;1.00
1181;DHT22;579;52.046;8.532;2023-02-22T20:18:40;12.30;1.00
1181;DHT22;579;52.046;8.532;2023-02-22T20:21:07;12.60;1.00
1181;DHT22;579;52.046;8.532;2023-02-22T20:23:34;12.50;1.00
1181;DHT22;579;52.046;8.532;2023-02-22T20:31:07;12.90;1.00
1181;DHT22;579;52.046;8.532;2023-02-22T20:33:35;13.10;1.00
1181;DHT22;579;52.046;8.532;2023-02-22T20:36:06;13.10;1.00
1181;DHT22;579;52.046;8.532;2023-02-22T20:38:34;13.30;1.00
1181;DHT22;579;52.046;8.532;2023-02-22T20:41:00;13.40;1.00
1181;DHT22;579;52.046;8.532;2023-02-22T20:43:27;13.20;1.00
1181;DHT22;579;52.046;8.532;2023-02-22T20:45:53;13.30;1.00
1181;DHT22;579;52.046;8.532;2023-02-22T20:51:05;13.20;1.00
1181;DHT22;579;52.046;8.532;2023-02-22T20:53:32;12.90;1.00
1181;DHT22;579;52.046;8.532;2023-02-22T20:55:58;12.80;1.00
1181;DHT22;579;52.046;8.532;2023-02-22T20:58:25;12.80;1.00
1181;DHT22;579;52.046;8.532;2023-02-22T21:00:51;12.90;1.00
1181;DHT22;579;52.046;8.532;2023-02-22T21:03:17;12.80;1.00